Time;durP1;ratioP1;P1;durP2;ratioP2;P2;SDS_P1;SDS_P2;PMS_P1;PMS_P2;Temp;Humidity;BMP_temperature;BMP_pressure;BME280_temperature;BME280_humidity;BME280_pressure;Samples;Min_cycle;Max_cycle;Signal;HPM_P1;HPM_P2
2024/03/19 00:00:45;;;;;;;13.98;7.22;;;7.70;99.90;;;;;;5033461;28;20029;-75
2024/03/19 00:03:10;;;;;;;15.88;6.97;;;7.70;99.90;;;;;;5032065;28;20085;-75
2024/03/19 00:05:36;;;;;;;12.48;6.05;;;7.70;99.90;;;;;;5032876;28;20029;-74
2024/03/19 00:08:02;;;;;;;13.90;7.05;;;7.70;99.90;;;;;;5033331;28;20042;-75
2024/03/19 00:10:27;;;;;;;13.23;6.55;;;7.60;99.90;;;;;;5032851;28;20022;-75
2024/03/19 00:12:53;;;;;;;13.75;6.25;;;7.60;99.90;;;;;;5034199;28;20129;-74
2024/03/19 00:15:19;;;;;;;14.48;6.68;;;7.60;99.90;;;;;;5033539;28;20044;-75
2024/03/19 00:17:44;;;;;;;15.65;6.53;;;7.50;99.90;;;;;;5031402;28;20026;-75
2024/03/19 00:20:10;;;;;;;12.35;6.47;;;7.50;99.90;;;;;;5032717;28;20021;-74
2024/03/19 00:22:36;;;;;;;13.68;6.80;;;7.50;99.90;;;;;;5033266;28;20439;-75
2024/03/19 00:25:05;;;;;;;15.90;6.78;;;7.40;99.90;;;;;;5031695;28;20022;-74
2024/03/19 00:27:32;;;;;;;10.55;6.20;;;7.40;99.90;;;;;;5032998;28;20037;-75
2024/03/19 00:29:59;;;;;;;18.00;6.75;;;7.40;99.90;;;;;;5033355;28;20470;-76
2024/03/19 00:32:24;;;;;;;13.80;6.95;;;7.30;99.90;;;;;;5032365;28;20033;-74
2024/03/19 00:34:50;;;;;;;13.63;6.70;;;7.30;99.90;;;;;;5031885;28;20052;-76
2024/03/19 00:37:16;;;;;;;12.50;6.57;;;7.30;99.90;;;;;;5032226;28;20029;-76
2024/03/19 00:39:42;;;;;;;12.27;6.20;;;7.20;99.90;;;;;;5031190;28;20036;-74
2024/03/19 00:42:08;;;;;;;12.98;6.93;;;7.20;99.90;;;;;;5032378;28;20021;-76
2024/03/19 00:44:34;;;;;;;16.23;7.28;;;7.20;99.90;;;;;;5031133;28;20037;-76
2024/03/19 00:47:00;;;;;;;15.25;6.53;;;7.20;99.90;;;;;;5030674;28;20029;-75
2024/03/19 00:49:26;;;;;;;13.73;6.53;;;7.20;99.90;;;;;;5032541;28;20017;-74
2024/03/19 00:51:52;;;;;;;20.95;7.18;;;7.10;99.90;;;;;;5032801;28;20053;-75
2024/03/19 00:54:17;;;;;;;12.80;6.30;;;7.00;99.90;;;;;;5030785;28;20025;-75
2024/03/19 00:56:43;;;;;;;14.63;6.32;;;6.90;99.90;;;;;;5034219;28;20118;-75
2024/03/19 00:59:09;;;;;;;13.40;6.97;;;6.90;99.90;;;;;;5030994;28;20030;-75
2024/03/19 01:01:35;;;;;;;13.88;6.68;;;6.90;99.90;;;;;;5030829;28;20739;-77
2024/03/19 01:04:04;;;;;;;11.75;6.38;;;6.90;99.90;;;;;;5032650;28;20026;-74
2024/03/19 01:06:31;;;;;;;13.43;6.45;;;6.80;99.90;;;;;;5033024;28;20374;-76
2024/03/19 01:08:57;;;;;;;13.82;6.63;;;6.80;99.90;;;;;;5031553;28;20022;-76
2024/03/19 01:11:23;;;;;;;13.07;6.50;;;6.80;99.90;;;;;;5030802;28;20021;-76
2024/03/19 01:13:49;;;;;;;11.98;6.35;;;6.80;99.90;;;;;;5032263;28;20447;-76
2024/03/19 01:16:14;;;;;;;12.60;6.90;;;6.80;99.90;;;;;;5030269;28;20041;-76
2024/03/19 01:18:40;;;;;;;13.80;6.72;;;6.80;99.90;;;;;;5031305;28;20033;-76
2024/03/19 01:21:06;;;;;;;14.52;7.10;;;6.70;99.90;;;;;;5030784;28;20029;-76
2024/03/19 01:23:32;;;;;;;13.05;6.63;;;6.70;99.90;;;;;;5032194;28;20079;-75
2024/03/19 01:25:58;;;;;;;15.45;6.93;;;6.70;99.90;;;;;;5031748;28;20025;-77
2024/03/19 01:28:24;;;;;;;13.27;6.55;;;6.70;99.90;;;;;;5031680;28;20069;-77
2024/03/19 01:30:49;;;;;;;13.57;6.90;;;6.70;99.90;;;;;;5031417;28;20037;-75
2024/03/19 01:33:15;;;;;;;15.20;7.70;;;6.70;99.90;;;;;;5029805;28;20031;-77
2024/03/19 01:35:41;;;;;;;15.18;7.00;;;6.70;99.90;;;;;;5031529;28;20033;-75
2024/03/19 01:38:07;;;;;;;14.15;6.80;;;6.60;99.90;;;;;;5029996;28;20036;-76
2024/03/19 01:40:33;;;;;;;16.60;7.07;;;6.70;99.90;;;;;;5030350;28;20025;-76
2024/03/19 01:42:59;;;;;;;13.25;6.93;;;6.70;99.90;;;;;;5030114;28;20390;-75
2024/03/19 01:45:25;;;;;;;9.93;5.85;;;6.70;99.90;;;;;;5032407;28;20018;-76
2024/03/19 01:47:51;;;;;;;12.00;6.28;;;6.70;99.90;;;;;;5030592;28;20032;-75
2024/03/19 01:50:17;;;;;;;14.77;6.47;;;6.70;99.90;;;;;;5032067;28;20092;-76
2024/03/19 01:52:44;;;;;;;13.05;6.97;;;6.70;99.90;;;;;;5035538;28;20030;-75
2024/03/19 01:55:11;;;;;;;11.90;6.93;;;6.70;99.90;;;;;;5035663;28;20076;-77
2024/03/19 01:57:37;;;;;;;13.00;6.53;;;6.60;99.90;;;;;;5035007;28;20502;-75
2024/03/19 02:00:07;;;;;;;11.52;6.82;;;6.70;99.90;;;;;;5034639;28;20025;-75
2024/03/19 02:02:34;;;;;;;11.68;6.00;;;6.60;99.90;;;;;;5033873;28;20046;-76
2024/03/19 02:05:01;;;;;;;10.98;6.13;;;6.60;99.90;;;;;;5035551;28;20022;-76
2024/03/19 02:07:27;;;;;;;9.85;6.07;;;6.70;99.90;;;;;;5035461;28;20045;-75
2024/03/19 02:09:55;;;;;;;13.00;6.38;;;6.70;99.90;;;;;;5036742;28;20075;-75
2024/03/19 02:12:21;;;;;;;14.68;5.82;;;6.70;99.90;;;;;;5034214;28;20072;-76
2024/03/19 02:14:47;;;;;;;13.80;6.20;;;6.60;99.90;;;;;;5034176;28;20045;-74
2024/03/19 02:17:12;;;;;;;9.68;5.38;;;6.60;99.90;;;;;;5035485;28;20043;-76
2024/03/19 02:19:38;;;;;;;13.32;5.80;;;6.60;99.90;;;;;;5035477;28;20056;-75
2024/03/19 02:22:05;;;;;;;10.18;5.32;;;6.70;99.90;;;;;;5035101;28;20072;-75
2024/03/19 02:24:31;;;;;;;12.85;6.07;;;6.70;99.90;;;;;;5035496;28;20056;-76
2024/03/19 02:26:57;;;;;;;12.30;5.32;;;6.80;99.90;;;;;;5036175;28;20028;-75
2024/03/19 02:29:23;;;;;;;10.85;5.72;;;6.80;99.90;;;;;;5033442;28;20038;-77
2024/03/19 02:31:48;;;;;;;10.18;5.78;;;6.80;99.90;;;;;;5033075;28;20037;-76
2024/03/19 02:34:14;;;;;;;11.00;5.45;;;6.80;99.90;;;;;;5035759;28;20100;-75
2024/03/19 02:36:39;;;;;;;11.43;5.70;;;6.80;99.90;;;;;;5032609;28;20037;-76
2024/03/19 02:39:05;;;;;;;13.82;6.22;;;6.80;99.90;;;;;;5032730;28;20025;-78
2024/03/19 02:41:31;;;;;;;10.07;5.22;;;6.80;99.90;;;;;;5034461;28;20070;-75
2024/03/19 02:43:57;;;;;;;12.07;5.43;;;6.80;99.90;;;;;;5033528;28;20029;-77
2024/03/19 02:46:24;;;;;;;11.18;5.45;;;6.80;99.90;;;;;;5034947;28;20018;-76
2024/03/19 02:48:49;;;;;;;10.98;5.50;;;6.80;99.90;;;;;;5035267;28;20021;-75
2024/03/19 02:51:15;;;;;;;9.70;5.03;;;6.80;99.90;;;;;;5033980;28;20028;-75
2024/03/19 02:53:40;;;;;;;14.20;5.30;;;6.80;99.90;;;;;;5032397;28;20057;-76
2024/03/19 02:56:06;;;;;;;11.25;5.50;;;6.80;99.90;;;;;;5034019;28;20045;-78
2024/03/19 02:58:32;;;;;;;10.10;5.50;;;6.80;99.90;;;;;;5034744;28;20025;-77
2024/03/19 03:00:57;;;;;;;9.13;5.30;;;6.70;99.90;;;;;;5032525;28;20032;-77
2024/03/19 03:03:23;;;;;;;11.02;5.00;;;6.70;99.90;;;;;;5033314;28;20283;-77
2024/03/19 03:05:49;;;;;;;9.50;4.95;;;6.70;99.90;;;;;;5034112;28;20040;-75
2024/03/19 03:08:15;;;;;;;11.90;5.28;;;6.70;99.90;;;;;;5033054;28;20076;-75
2024/03/19 03:10:41;;;;;;;11.18;4.82;;;6.60;99.90;;;;;;5058398;28;20034;-75
2024/03/19 03:13:07;;;;;;;8.77;5.07;;;6.60;99.90;;;;;;5032713;28;20034;-76
2024/03/19 03:15:32;;;;;;;10.95;5.35;;;6.50;99.90;;;;;;5032724;28;20041;-75
2024/03/19 03:17:59;;;;;;;9.60;5.30;;;6.50;99.90;;;;;;5034435;28;20026;-75
2024/03/19 03:20:25;;;;;;;8.93;4.68;;;6.50;99.90;;;;;;5035063;28;20041;-76
2024/03/19 03:22:51;;;;;;;13.63;5.45;;;6.50;99.90;;;;;;5034166;28;20041;-75
2024/03/19 03:25:16;;;;;;;10.05;4.78;;;6.40;99.90;;;;;;5031850;28;20030;-75
2024/03/19 03:27:43;;;;;;;11.48;5.30;;;6.40;99.90;;;;;;5035143;28;20060;-74
2024/03/19 03:30:10;;;;;;;9.95;4.97;;;6.30;99.90;;;;;;5032084;28;20480;-76
2024/03/19 03:32:40;;;;;;;11.57;5.25;;;6.30;99.90;;;;;;5033374;28;20018;-75
2024/03/19 03:35:09;;;;;;;9.25;4.78;;;6.30;99.90;;;;;;5033646;28;20038;-75
2024/03/19 03:37:35;;;;;;;9.23;4.57;;;6.20;99.90;;;;;;5034556;28;20021;-75
2024/03/19 03:40:09;;;;;;;11.25;5.45;;;6.20;99.90;;;;;;5033009;28;20029;-76
2024/03/19 03:42:34;;;;;;;11.02;5.13;;;6.20;99.90;;;;;;5034044;28;20025;-74
2024/03/19 03:45:00;;;;;;;10.10;5.53;;;6.20;99.90;;;;;;5034304;28;20042;-77
2024/03/19 03:47:26;;;;;;;9.18;4.70;;;6.10;99.90;;;;;;5034009;28;20048;-75
2024/03/19 03:49:51;;;;;;;10.70;4.95;;;6.10;99.90;;;;;;5033830;28;20089;-75
2024/03/19 03:52:17;;;;;;;10.80;5.00;;;6.10;99.90;;;;;;5033695;28;20418;-74
2024/03/19 03:54:43;;;;;;;9.15;4.97;;;6.10;99.90;;;;;;5032659;28;20065;-76
2024/03/19 03:57:08;;;;;;;11.00;5.15;;;6.10;99.90;;;;;;5034111;28;20041;-75
2024/03/19 03:59:34;;;;;;;11.27;5.00;;;6.00;99.90;;;;;;5033624;28;20032;-76
2024/03/19 04:01:59;;;;;;;9.82;4.78;;;6.00;99.90;;;;;;5032692;28;20148;-76
2024/03/19 04:04:25;;;;;;;11.65;5.35;;;6.00;99.90;;;;;;5035590;28;20492;-76
2024/03/19 04:06:51;;;;;;;10.23;4.57;;;5.90;99.90;;;;;;5035138;28;20107;-77
2024/03/19 04:09:17;;;;;;;12.00;4.85;;;6.00;99.90;;;;;;5033994;28;20033;-75
2024/03/19 04:11:42;;;;;;;10.15;5.10;;;5.90;99.90;;;;;;5033900;28;20021;-75
2024/03/19 04:14:08;;;;;;;9.80;5.10;;;5.90;99.90;;;;;;5033285;28;20085;-76
2024/03/19 04:16:33;;;;;;;10.23;4.90;;;5.90;99.90;;;;;;5034935;28;20390;-75
2024/03/19 04:19:00;;;;;;;9.98;5.43;;;5.90;99.90;;;;;;5034373;28;20072;-76
2024/03/19 04:21:26;;;;;;;12.15;5.22;;;5.90;99.90;;;;;;5033084;28;20026;-75
2024/03/19 04:23:51;;;;;;;11.77;5.47;;;5.80;99.90;;;;;;5034560;28;20371;-74
2024/03/19 04:26:17;;;;;;;10.45;5.45;;;5.80;99.90;;;;;;5033568;28;20014;-76
2024/03/19 04:28:43;;;;;;;9.43;4.93;;;5.80;99.90;;;;;;5033602;28;20100;-75
2024/03/19 04:31:08;;;;;;;9.25;5.05;;;5.80;99.90;;;;;;5032603;28;20022;-75
2024/03/19 04:33:34;;;;;;;8.60;4.80;;;5.80;99.90;;;;;;5032475;28;20482;-75
2024/03/19 04:36:00;;;;;;;11.30;5.30;;;5.90;99.90;;;;;;5032724;28;20042;-74
2024/03/19 04:38:25;;;;;;;10.40;5.03;;;6.00;99.90;;;;;;5032032;28;20022;-77
2024/03/19 04:40:51;;;;;;;10.93;5.10;;;5.80;99.90;;;;;;5033431;28;20032;-76
2024/03/19 04:43:16;;;;;;;11.32;5.25;;;5.80;99.90;;;;;;5032551;28;20021;-75
2024/03/19 04:45:42;;;;;;;9.52;5.47;;;5.90;99.90;;;;;;5032681;28;20026;-73
2024/03/19 04:48:08;;;;;;;10.27;5.22;;;5.90;99.90;;;;;;5031677;28;20021;-75
2024/03/19 04:50:33;;;;;;;12.77;5.72;;;5.90;99.90;;;;;;5032688;28;20072;-75
2024/03/19 04:52:59;;;;;;;9.18;4.97;;;5.90;99.90;;;;;;5031462;28;20021;-75
2024/03/19 04:55:25;;;;;;;10.98;5.45;;;6.00;99.90;;;;;;5032596;28;20120;-78
2024/03/19 04:57:50;;;;;;;12.35;6.03;;;5.90;99.90;;;;;;5033372;28;20025;-75
2024/03/19 05:00:17;;;;;;;11.15;5.50;;;5.90;99.90;;;;;;5031491;28;20018;-75
2024/03/19 05:02:46;;;;;;;13.52;5.50;;;5.90;99.90;;;;;;5033546;28;20414;-75
2024/03/19 05:05:12;;;;;;;9.35;5.57;;;5.90;99.90;;;;;;5031928;28;20021;-75
2024/03/19 05:07:38;;;;;;;10.98;5.05;;;6.00;99.90;;;;;;5031666;28;20029;-75
2024/03/19 05:10:05;;;;;;;9.75;5.43;;;6.00;99.90;;;;;;5032727;28;20176;-75
2024/03/19 05:12:30;;;;;;;10.73;5.18;;;6.00;99.90;;;;;;5031699;28;20022;-78
2024/03/19 05:14:56;;;;;;;10.23;4.88;;;6.00;99.90;;;;;;5030577;28;20037;-76
2024/03/19 05:17:21;;;;;;;10.13;5.45;;;5.90;99.90;;;;;;5032550;28;20026;-75
2024/03/19 05:19:47;;;;;;;11.13;5.57;;;6.00;99.90;;;;;;5032331;28;20401;-74
2024/03/19 05:22:12;;;;;;;12.25;5.70;;;5.90;99.90;;;;;;5031341;28;20018;-75
2024/03/19 05:24:38;;;;;;;9.73;5.00;;;5.90;99.90;;;;;;5032849;28;20018;-77
2024/03/19 05:27:04;;;;;;;10.27;5.72;;;5.90;99.90;;;;;;5032255;28;20033;-74
2024/03/19 05:29:31;;;;;;;11.20;5.38;;;5.90;99.90;;;;;;5032423;28;20076;-75
2024/03/19 05:31:57;;;;;;;14.50;5.45;;;5.80;99.90;;;;;;5033261;28;20030;-77
2024/03/19 05:34:22;;;;;;;12.02;5.65;;;5.90;99.90;;;;;;5030952;28;20132;-78
2024/03/19 05:36:48;;;;;;;11.27;5.65;;;5.90;99.90;;;;;;5031271;28;20014;-76
2024/03/19 05:39:14;;;;;;;9.05;4.90;;;6.00;99.90;;;;;;5030827;28;20051;-76
2024/03/19 05:41:40;;;;;;;12.77;5.72;;;6.00;99.90;;;;;;5031998;28;20018;-75
2024/03/19 05:44:07;;;;;;;11.50;5.90;;;6.00;99.90;;;;;;5032820;28;20490;-74
2024/03/19 05:46:33;;;;;;;10.30;5.53;;;5.90;99.90;;;;;;5031837;28;20026;-75
2024/03/19 05:48:59;;;;;;;11.65;5.50;;;5.90;99.90;;;;;;5031700;28;20029;-76
2024/03/19 05:51:24;;;;;;;12.30;5.45;;;6.00;99.90;;;;;;5030375;28;20036;-74
2024/03/19 05:53:50;;;;;;;9.70;5.32;;;6.00;99.90;;;;;;5032347;28;20029;-74
2024/03/19 05:56:15;;;;;;;12.38;5.63;;;6.00;99.90;;;;;;5032113;28;20041;-76
2024/03/19 05:58:41;;;;;;;10.35;5.70;;;6.00;99.90;;;;;;5032271;28;20038;-76
2024/03/19 06:01:07;;;;;;;9.05;5.32;;;5.90;99.90;;;;;;5030109;28;20025;-75
2024/03/19 06:03:33;;;;;;;12.75;5.72;;;6.00;99.90;;;;;;5031640;28;20060;-75
2024/03/19 06:06:01;;;;;;;11.88;6.22;;;6.00;99.90;;;;;;5032829;28;20025;-76
2024/03/19 06:08:28;;;;;;;10.75;5.72;;;6.00;99.90;;;;;;5031842;28;20038;-78
2024/03/19 06:10:54;;;;;;;9.32;5.32;;;6.10;99.90;;;;;;5032684;28;20075;-74
2024/03/19 06:13:20;;;;;;;13.70;5.80;;;6.00;99.90;;;;;;5031748;28;20025;-75
2024/03/19 06:15:46;;;;;;;8.85;5.38;;;6.00;99.90;;;;;;5030587;28;20049;-75
2024/03/19 06:18:12;;;;;;;11.18;5.38;;;6.00;99.90;;;;;;5031431;28;20052;-77
2024/03/19 06:20:38;;;;;;;8.95;5.40;;;6.00;99.90;;;;;;5030760;28;20026;-76
2024/03/19 06:23:04;;;;;;;11.00;5.20;;;5.90;99.90;;;;;;5030775;28;20121;-75
2024/03/19 06:25:30;;;;;;;15.65;5.40;;;5.90;99.90;;;;;;5031867;28;20093;-76
2024/03/19 06:27:55;;;;;;;11.82;5.50;;;6.00;99.90;;;;;;5032167;28;20026;-76
2024/03/19 06:30:21;;;;;;;11.93;5.07;;;6.00;99.90;;;;;;5031588;28;20071;-74
2024/03/19 06:32:46;;;;;;;14.70;5.72;;;6.00;99.90;;;;;;5030261;28;20026;-76
2024/03/19 06:35:14;;;;;;;8.93;4.90;;;6.10;99.90;;;;;;5031507;28;20037;-75
2024/03/19 06:37:43;;;;;;;10.32;5.57;;;6.10;99.90;;;;;;5033667;28;20025;-75
2024/03/19 06:40:10;;;;;;;9.45;5.65;;;6.10;99.90;;;;;;5034227;28;20864;-74
2024/03/19 06:42:36;;;;;;;12.18;5.25;;;6.20;99.90;;;;;;5036688;28;20030;-76
2024/03/19 06:45:04;;;;;;;10.85;5.50;;;6.20;99.90;;;;;;5035078;28;20018;-75
2024/03/19 06:47:30;;;;;;;10.80;5.70;;;6.20;99.90;;;;;;5034076;28;20049;-75
2024/03/19 06:49:55;;;;;;;9.68;5.43;;;6.20;99.90;;;;;;5035839;28;20034;-76
2024/03/19 06:52:21;;;;;;;8.73;5.35;;;6.30;99.90;;;;;;5035052;28;20029;-75
2024/03/19 06:54:47;;;;;;;11.82;5.70;;;6.30;99.90;;;;;;5034407;28;20042;-74
2024/03/19 06:57:12;;;;;;;9.75;5.70;;;6.30;99.90;;;;;;5035855;28;20028;-76
2024/03/19 06:59:38;;;;;;;11.73;5.63;;;6.40;99.90;;;;;;5034983;28;20021;-76
2024/03/19 07:02:08;;;;;;;11.77;5.90;;;6.40;99.90;;;;;;5034030;28;20041;-76
2024/03/19 07:04:35;;;;;;;10.43;5.78;;;6.40;99.90;;;;;;5034388;28;20036;-76
2024/03/19 07:07:02;;;;;;;9.95;5.63;;;6.40;99.90;;;;;;5034872;28;20393;-75
2024/03/19 07:09:28;;;;;;;13.10;5.53;;;6.40;99.90;;;;;;5034651;28;20072;-76
2024/03/19 07:11:54;;;;;;;11.77;5.50;;;6.40;99.90;;;;;;5034922;28;20021;-75
2024/03/19 07:14:20;;;;;;;12.52;5.22;;;6.50;99.90;;;;;;5035656;28;20048;-75
2024/03/19 07:16:45;;;;;;;11.38;5.78;;;6.50;99.90;;;;;;5034712;28;20029;-79
2024/03/19 07:19:11;;;;;;;11.95;6.07;;;6.50;99.90;;;;;;5033358;28;20026;-75
2024/03/19 07:21:37;;;;;;;9.98;5.47;;;6.50;99.90;;;;;;5035187;28;20029;-75
2024/03/19 07:24:03;;;;;;;12.95;5.85;;;6.50;99.90;;;;;;5034913;28;20107;-75
2024/03/19 07:26:29;;;;;;;9.00;5.38;;;6.60;99.90;;;;;;5034785;28;20030;-76
2024/03/19 07:28:54;;;;;;;14.88;6.72;;;6.60;99.90;;;;;;5032960;28;20454;-74
2024/03/19 07:31:20;;;;;;;10.95;6.00;;;6.70;99.90;;;;;;5033987;28;20042;-75
2024/03/19 07:33:46;;;;;;;13.60;6.15;;;6.70;99.90;;;;;;5056037;28;20025;-74
2024/03/19 07:36:12;;;;;;;9.02;5.57;;;6.80;99.90;;;;;;5034641;28;20553;-74
2024/03/19 07:38:41;;;;;;;10.27;5.32;;;6.90;99.90;;;;;;5034389;28;20041;-76
2024/03/19 07:41:07;;;;;;;12.02;5.90;;;6.90;99.90;;;;;;5033646;28;20017;-76
2024/03/19 07:43:33;;;;;;;11.75;5.65;;;6.90;99.90;;;;;;5057087;28;20025;-75
2024/03/19 07:45:59;;;;;;;10.38;6.10;;;7.00;99.90;;;;;;5040885;28;20026;-75
2024/03/19 07:48:25;;;;;;;11.60;6.00;;;6.90;99.90;;;;;;5031504;28;20036;-75
2024/03/19 07:50:51;;;;;;;14.93;5.90;;;6.90;99.90;;;;;;5055940;28;20480;-76
2024/03/19 07:53:16;;;;;;;11.95;6.60;;;6.90;99.90;;;;;;5032139;28;20054;-78
2024/03/19 07:55:44;;;;;;;13.35;6.22;;;7.00;99.90;;;;;;5032152;28;20037;-76
2024/03/19 07:58:09;;;;;;;13.85;5.90;;;7.00;99.90;;;;;;5032452;28;20014;-77
2024/03/19 08:00:37;;;;;;;12.40;6.45;;;7.10;99.90;;;;;;5033534;28;20081;-77
2024/03/19 08:03:04;;;;;;;11.02;6.10;;;7.10;99.90;;;;;;5032001;28;20038;-77
2024/03/19 08:05:29;;;;;;;13.18;7.25;;;7.10;99.90;;;;;;5032972;28;20021;-75
2024/03/19 08:07:56;;;;;;;13.23;6.03;;;7.10;99.90;;;;;;5033520;28;20064;-76
2024/03/19 08:10:22;;;;;;;12.27;6.57;;;7.10;99.90;;;;;;5033288;28;20045;-77
2024/03/19 08:12:47;;;;;;;13.85;6.75;;;7.10;99.90;;;;;;5033621;28;20032;-76
2024/03/19 08:15:13;;;;;;;11.00;6.15;;;7.10;99.90;;;;;;5034351;28;20067;-77
2024/03/19 08:17:39;;;;;;;13.05;7.45;;;7.10;99.90;;;;;;5034872;28;20087;-77
2024/03/19 08:20:08;;;;;;;13.73;6.70;;;7.10;99.90;;;;;;5033653;28;20120;-78
2024/03/19 08:22:34;;;;;;;13.15;7.15;;;7.10;99.90;;;;;;5033244;28;20340;-76
2024/03/19 08:25:01;;;;;;;14.75;7.28;;;7.10;99.90;;;;;;5034126;28;20021;-76
2024/03/19 08:27:26;;;;;;;14.60;6.75;;;7.10;99.90;;;;;;5034277;28;20048;-77
2024/03/19 08:29:52;;;;;;;11.68;6.22;;;7.10;99.90;;;;;;5033409;28;20034;-76
2024/03/19 08:32:18;;;;;;;16.60;7.65;;;7.10;99.90;;;;;;5034599;28;20029;-75
2024/03/19 08:34:43;;;;;;;13.77;7.20;;;7.10;99.90;;;;;;5034404;28;20029;-76
2024/03/19 08:37:10;;;;;;;16.35;7.50;;;7.20;99.90;;;;;;5034039;28;20028;-77
2024/03/19 08:39:35;;;;;;;15.68;7.47;;;7.20;99.90;;;;;;5034174;28;20081;-75
2024/03/19 08:42:01;;;;;;;17.50;7.70;;;7.30;99.90;;;;;;5033486;28;20025;-75
2024/03/19 08:44:26;;;;;;;14.35;7.43;;;7.30;99.90;;;;;;5032953;28;20018;-76
2024/03/19 08:46:52;;;;;;;16.48;7.43;;;7.40;99.90;;;;;;5032214;28;20048;-76
2024/03/19 08:49:18;;;;;;;14.68;7.70;;;7.50;99.90;;;;;;5032946;28;20116;-74
2024/03/19 08:51:44;;;;;;;16.23;8.43;;;7.60;99.90;;;;;;5033367;28;20025;-75
2024/03/19 08:54:09;;;;;;;18.25;8.30;;;7.70;99.90;;;;;;5031390;28;20021;-76
2024/03/19 08:56:36;;;;;;;16.92;7.97;;;7.70;99.90;;;;;;5032574;28;20041;-75
2024/03/19 08:59:03;;;;;;;17.88;8.63;;;7.80;99.90;;;;;;5031825;28;20367;-77
2024/03/19 09:01:28;;;;;;;16.98;8.35;;;7.80;99.90;;;;;;5029279;28;20045;-77
2024/03/19 09:03:54;;;;;;;18.38;8.60;;;7.90;99.90;;;;;;5028899;28;20022;-76
2024/03/19 09:06:20;;;;;;;18.02;9.13;;;8.00;99.90;;;;;;5031311;28;20029;-76
2024/03/19 09:08:46;;;;;;;16.83;8.25;;;8.00;99.90;;;;;;5031019;28;20017;-77
2024/03/19 09:11:11;;;;;;;17.38;8.73;;;8.10;99.90;;;;;;5030197;28;20060;-75
2024/03/19 09:13:37;;;;;;;17.00;8.55;;;8.20;99.90;;;;;;5032400;28;20072;-77
2024/03/19 09:16:03;;;;;;;18.60;9.02;;;8.30;99.90;;;;;;5031570;28;20029;-76
2024/03/19 09:18:30;;;;;;;19.77;9.32;;;8.30;99.90;;;;;;5032777;28;20030;-74
2024/03/19 09:20:55;;;;;;;19.25;9.40;;;8.40;99.90;;;;;;5032827;28;20026;-74
2024/03/19 09:23:23;;;;;;;19.55;10.07;;;8.40;99.90;;;;;;5031954;28;20036;-78
2024/03/19 09:25:49;;;;;;;17.08;9.25;;;8.40;99.90;;;;;;5031279;28;20452;-77
2024/03/19 09:28:14;;;;;;;16.00;9.38;;;8.50;99.90;;;;;;5031281;28;20041;-77
2024/03/19 09:30:40;;;;;;;22.55;10.10;;;8.50;99.90;;;;;;5031756;28;20029;-77
2024/03/19 09:33:09;;;;;;;19.02;9.70;;;8.60;99.90;;;;;;5030888;28;20026;-77
2024/03/19 09:35:35;;;;;;;20.25;9.55;;;8.70;99.90;;;;;;5033184;28;20048;-75
2024/03/19 09:38:01;;;;;;;24.67;10.05;;;8.80;99.90;;;;;;5031313;28;20030;-76
2024/03/19 09:40:27;;;;;;;18.10;9.70;;;9.00;99.90;;;;;;5031110;28;20021;-76
2024/03/19 09:42:54;;;;;;;21.80;10.52;;;9.10;99.90;;;;;;5031625;28;20026;-76
2024/03/19 09:45:29;;;;;;;19.30;10.32;;;9.20;99.90;;;;;;5030824;28;20057;-75
2024/03/19 09:47:55;;;;;;;21.33;10.13;;;9.20;99.90;;;;;;5030993;28;20028;-74
2024/03/19 09:50:23;;;;;;;21.95;9.90;;;9.30;99.90;;;;;;5031288;28;20086;-77
2024/03/19 09:52:50;;;;;;;22.70;11.20;;;9.40;99.90;;;;;;5032427;28;20022;-76
2024/03/19 09:55:18;;;;;;;18.42;9.48;;;9.40;99.90;;;;;;5032115;28;20037;-76
2024/03/19 09:57:48;;;;;;;21.75;11.00;;;9.50;99.90;;;;;;5032324;28;20083;-74
2024/03/19 10:00:26;;;;;;;20.27;10.15;;;9.60;99.90;;;;;;5032082;28;20546;-75
2024/03/19 10:02:53;;;;;;;20.45;11.73;;;9.70;99.90;;;;;;5031113;28;20052;-76
2024/03/19 10:05:19;;;;;;;24.42;11.00;;;9.70;99.90;;;;;;5030776;28;20085;-76
2024/03/19 10:07:46;;;;;;;23.58;12.02;;;9.80;99.90;;;;;;5030826;28;20021;-75
2024/03/19 10:10:16;;;;;;;22.95;11.38;;;9.90;99.90;;;;;;5030549;28;20022;-77
2024/03/19 10:12:42;;;;;;;23.67;12.32;;;10.00;99.90;;;;;;5035685;28;20026;-74
2024/03/19 10:15:08;;;;;;;25.67;11.88;;;10.10;99.90;;;;;;5034549;28;20034;-76
2024/03/19 10:17:35;;;;;;;22.58;10.20;;;10.20;99.90;;;;;;5036300;28;20026;-76
2024/03/19 10:20:01;;;;;;;26.83;12.05;;;10.30;99.90;;;;;;5036201;28;20034;-76
2024/03/19 10:22:27;;;;;;;23.85;10.68;;;10.30;99.90;;;;;;5034424;28;20021;-75
2024/03/19 10:24:56;;;;;;;25.90;11.73;;;10.30;99.90;;;;;;5036656;28;20042;-74
2024/03/19 10:27:22;;;;;;;24.80;12.75;;;10.30;99.90;;;;;;5035596;28;20014;-76
2024/03/19 10:29:47;;;;;;;22.50;12.40;;;10.20;99.90;;;;;;5035712;28;20035;-74
2024/03/19 10:32:14;;;;;;;25.60;14.48;;;10.30;99.90;;;;;;5034796;28;20025;-75
2024/03/19 10:34:44;;;;;;;24.67;13.23;;;10.40;99.90;;;;;;5034918;28;20085;-77
2024/03/19 10:37:09;;;;;;;28.40;14.10;;;10.50;99.90;;;;;;5035547;28;20025;-78
2024/03/19 10:39:36;;;;;;;26.92;13.38;;;10.60;99.90;;;;;;5034135;28;20021;-75
2024/03/19 10:42:05;;;;;;;28.08;14.00;;;10.80;99.90;;;;;;5035589;28;20030;-75
2024/03/19 10:44:35;;;;;;;29.80;14.18;;;11.00;99.90;;;;;;5035842;28;20075;-75
2024/03/19 10:47:01;;;;;;;29.20;15.18;;;11.10;99.90;;;;;;5034713;28;20458;-76
2024/03/19 10:49:27;;;;;;;29.65;13.95;;;11.20;99.90;;;;;;5035627;28;20034;-76
2024/03/19 10:51:59;;;;;;;23.42;12.88;;;11.30;99.90;;;;;;5034215;28;20480;-75
2024/03/19 10:54:29;;;;;;;29.92;14.77;;;11.30;99.90;;;;;;5033750;28;20026;-75
2024/03/19 10:56:56;;;;;;;29.75;15.30;;;11.30;99.90;;;;;;5035953;28;20032;-75
2024/03/19 10:59:21;;;;;;;29.85;13.90;;;11.50;99.90;;;;;;5035352;28;20033;-77
2024/03/19 11:01:57;;;;;;;33.03;15.95;;;11.70;99.90;;;;;;5033070;28;20049;-75
2024/03/19 11:04:26;;;;;;;28.63;14.93;;;11.90;99.90;;;;;;5035885;28;20017;-73
2024/03/19 11:06:58;;;;;;;32.85;15.68;;;12.00;99.90;;;;;;5035493;28;20077;-75
2024/03/19 11:09:31;;;;;;;28.58;15.07;;;12.10;99.90;;;;;;5033063;28;20619;-74
2024/03/19 11:11:59;;;;;;;33.67;16.60;;;12.40;99.90;;;;;;5033946;28;20021;-74
2024/03/19 11:14:25;;;;;;;37.85;16.60;;;12.50;99.90;;;;;;5033944;28;20030;-75
2024/03/19 11:16:51;;;;;;;32.20;17.08;;;12.70;99.90;;;;;;5033232;28;20037;-75
2024/03/19 11:19:24;;;;;;;33.83;17.38;;;12.90;99.90;;;;;;5033809;28;20022;-79
2024/03/19 11:21:51;;;;;;;37.73;17.93;;;13.00;99.90;;;;;;5034700;28;20084;-76
2024/03/19 11:24:26;;;;;;;35.65;17.80;;;13.10;99.90;;;;;;5033626;28;20327;-74
2024/03/19 11:26:59;;;;;;;37.53;17.52;;;13.00;99.90;;;;;;5033657;28;20034;-76
2024/03/19 11:29:27;;;;;;;36.15;17.98;;;13.00;99.90;;;;;;5034783;28;20079;-75
2024/03/19 11:31:59;;;;;;;37.35;18.55;;;13.00;99.90;;;;;;5033728;28;20022;-75
2024/03/19 11:34:26;;;;;;;34.53;18.55;;;13.10;99.90;;;;;;5033976;28;20036;-73
2024/03/19 11:36:52;;;;;;;37.28;19.13;;;13.50;99.90;;;;;;5032002;28;20030;-76
2024/03/19 11:39:19;;;;;;;37.25;18.05;;;13.60;99.90;;;;;;5049325;28;20033;-77
2024/03/19 11:41:45;;;;;;;38.35;19.27;;;13.80;99.90;;;;;;5033573;28;20018;-73
2024/03/19 11:44:14;;;;;;;35.80;17.90;;;14.00;99.90;;;;;;5033418;28;20084;-75
2024/03/19 11:46:47;;;;;;;41.33;18.60;;;14.10;99.90;;;;;;5034735;28;20025;-76
2024/03/19 11:49:27;;;;;;;34.00;19.33;;;14.20;99.90;;;;;;5032917;28;20048;-76
2024/03/19 11:52:01;;;;;;;39.30;19.90;;;14.50;99.90;;;;;;5033085;28;20025;-75
2024/03/19 11:54:29;;;;;;;41.80;18.40;;;14.80;99.90;;;;;;5034051;28;20034;-75
2024/03/19 11:56:55;;;;;;;30.92;17.48;;;15.10;99.90;;;;;;5032866;28;20131;-78
2024/03/19 11:59:28;;;;;;;32.85;17.63;;;15.60;99.90;;;;;;5034048;28;20691;-74
2024/03/19 12:01:56;;;;;;;31.70;18.60;;;16.10;99.90;;;;;;5033717;28;20714;-75
2024/03/19 12:04:23;;;;;;;34.63;18.40;;;16.30;99.90;;;;;;5033486;28;20391;-74
2024/03/19 12:06:49;;;;;;;31.05;17.67;;;16.50;99.90;;;;;;5032249;28;20098;-73
2024/03/19 12:09:25;;;;;;;35.83;17.65;;;16.60;99.90;;;;;;5035374;28;20114;-74
2024/03/19 12:11:51;;;;;;;31.90;18.20;;;16.50;99.90;;;;;;5033996;28;20018;-75
2024/03/19 12:14:21;;;;;;;33.65;19.15;;;16.10;99.90;;;;;;5034090;28;20045;-75
2024/03/19 12:16:48;;;;;;;32.10;18.73;;;15.90;99.90;;;;;;5034295;28;20088;-77
2024/03/19 12:19:19;;;;;;;32.80;18.70;;;15.60;99.90;;;;;;5033371;28;20033;-74
2024/03/19 12:21:47;;;;;;;34.92;19.17;;;15.50;99.90;;;;;;5032900;28;20037;-76
2024/03/19 12:24:21;;;;;;;36.10;18.77;;;15.40;99.90;;;;;;5033786;28;20026;-75
2024/03/19 12:26:50;;;;;;;;;;;15.20;99.90;;;;;;5033105;28;20017;-75
2024/03/19 12:29:18;;;;;;;37.10;19.45;;;15.10;99.90;;;;;;5034199;28;19953;-73
2024/03/19 12:31:49;;;;;;;36.60;20.42;;;15.00;99.90;;;;;;5032004;28;20022;-74
2024/03/19 12:37:10;;;;;;;42.88;20.67;;;14.80;99.90;;;;;;5034099;28;20052;-73
2024/03/19 12:39:36;;;;;;;39.67;19.20;;;14.70;99.90;;;;;;5031679;28;20018;-74
2024/03/19 12:42:03;;;;;;;38.58;21.23;;;14.50;99.90;;;;;;5034574;28;20040;-74